Time;durP1;ratioP1;P1;durP2;ratioP2;P2;SDS_P1;SDS_P2;PMS_P1;PMS_P2;Temp;Humidity;BMP_temperature;BMP_pressure;BME280_temperature;BME280_humidity;BME280_pressure;Samples;Min_cycle;Max_cycle;Signal;HPM_P1;HPM_P2
2022/01/24 00:02:14;;;;;;;;;68.50;50.75;;;;;5.28;66.72;102626.22;4986832;28;45580;-61
2022/01/24 00:04:39;;;;;;;;;58.25;50.00;;;;;5.31;66.43;102634.13;4988281;28;45474;-62
2022/01/24 00:07:06;;;;;;;;;75.00;54.25;;;;;5.30;66.05;102636.75;4962185;28;45389;-62
2022/01/24 00:09:31;;;;;;;;;69.25;50.50;;;;;5.29;65.96;102635.00;4982880;28;45432;-65
2022/01/24 00:12:17;;;;;;;;;64.25;50.75;;;;;5.25;66.61;102628.88;4997176;28;45384;-62
2022/01/24 00:17:29;;;;;;;;;62.50;49.25;;;;;5.27;66.26;102628.88;4990298;28;45458;-62
2022/01/24 00:28:04;;;;;;;;;61.00;51.00;;;;;5.18;66.16;102599.84;4976988;28;45607;-62
2022/01/24 00:30:29;;;;;;;;;61.75;50.50;;;;;5.19;66.98;102618.31;4981837;28;45399;-64
2022/01/24 00:32:55;;;;;;;;;61.00;46.25;;;;;5.10;66.92;102599.88;4996670;28;45473;-59
2022/01/24 00:35:20;;;;;;;;;50.25;42.25;;;;;5.17;66.61;102609.53;4983930;28;45629;-63
2022/01/24 00:37:46;;;;;;;;;55.25;43.75;;;;;5.10;66.46;102602.53;4980240;28;46378;-60
2022/01/24 00:40:12;;;;;;;;;54.25;47.00;;;;;5.07;66.38;102597.22;4975960;28;45250;-63
2022/01/24 00:45:12;;;;;;;;;54.75;43.50;;;;;5.08;66.88;102595.47;4976664;28;45500;-62
2022/01/24 00:55:21;;;;;;;;;51.00;43.75;;;;;4.99;67.48;102588.47;4976918;28;45320;-60
2022/01/24 00:57:47;;;;;;;;;51.50;42.25;;;;;4.97;66.74;102598.13;4983960;28;46167;-62
2022/01/24 01:00:13;;;;;;;;;41.25;39.25;;;;;4.89;66.93;102579.69;4959140;28;45992;-64
2022/01/24 01:02:38;;;;;;;;;42.50;37.50;;;;;4.93;67.21;102589.34;4978657;28;45467;-62
2022/01/24 01:06:08;;;;;;;;;53.50;44.00;;;;;4.92;67.58;102587.56;4976392;28;45557;-60
2022/01/24 01:18:42;;;;;;;;;39.75;39.00;;;;;4.86;67.29;102578.81;4975807;28;45256;-65
2022/01/24 01:21:10;;;;;;;;;43.50;36.25;;;;;4.85;67.33;102588.47;4977405;28;45451;-60
2022/01/24 01:23:40;;;;;;;;;51.50;40.50;;;;;4.84;67.25;102583.22;4984695;28;45472;-61
2022/01/24 01:26:12;;;;;;;;;50.25;42.50;;;;;4.86;67.62;102587.59;4958381;28;45727;-60
2022/01/24 01:28:41;;;;;;;;;42.50;40.00;;;;;4.78;67.70;102583.19;4967334;28;47126;-61
2022/01/24 01:31:14;;;;;;;;;55.25;41.25;;;;;4.74;67.30;102580.56;4981968;28;45606;-61
2022/01/24 01:36:36;;;;;;;;;46.25;41.25;;;;;4.82;67.85;102584.94;4988011;28;45436;-62
2022/01/24 01:55:16;;;;;;;;;41.50;39.50;;;;;4.78;67.54;102583.19;4981111;28;45305;-65
2022/01/24 01:57:42;;;;;;;;;47.50;39.00;;;;;4.76;67.40;102579.69;4977307;28;45427;-64
2022/01/24 02:00:09;;;;;;;;;48.75;39.00;;;;;4.73;67.37;102578.81;4994749;28;45396;-59
2022/01/24 02:02:35;;;;;;;;;45.25;37.75;;;;;4.74;68.04;102583.19;4990444;28;45387;-62
2022/01/24 02:05:01;;;;;;;;;40.25;35.25;;;;;4.73;67.34;102592.00;4976796;28;45373;-68
2022/01/24 02:07:27;;;;;;;;;44.50;38.75;;;;;4.72;67.36;102595.50;4979161;28;45532;-61
2022/01/24 02:09:52;;;;;;;;;43.00;39.00;;;;;4.70;67.64;102585.84;4950588;28;46305;-62
2022/01/24 02:12:21;;;;;;;;;37.25;33.00;;;;;4.67;67.23;102586.69;4994917;28;45308;-65
2022/01/24 02:14:52;;;;;;;;;41.25;35.75;;;;;4.74;67.59;102596.38;4969184;28;45279;-65
2022/01/24 02:17:27;;;;;;;;;46.75;41.00;;;;;4.71;67.90;102588.47;4978773;28;45570;-67
2022/01/24 02:25:00;;;;;;;;;48.00;43.00;;;;;4.73;67.71;102589.34;4996499;28;45158;-63
2022/01/24 02:27:32;;;;;;;;;34.00;32.25;;;;;4.69;67.82;102574.44;4982991;28;45561;-62
2022/01/24 02:32:37;;;;;;;;;45.00;33.75;;;;;4.69;67.85;102574.44;4978535;28;45336;-63
2022/01/24 02:35:03;;;;;;;;;45.50;35.00;;;;;4.65;67.56;102569.13;4977104;28;45423;-62
2022/01/24 02:37:31;;;;;;;;;41.00;33.25;;;;;4.58;68.37;102565.63;4987532;28;45466;-62
2022/01/24 02:40:02;;;;;;;;;40.25;34.75;;;;;4.58;67.64;102570.91;4979576;28;45281;-60
2022/01/24 02:48:25;;;;;;;;;47.00;33.50;;;;;4.48;68.05;102561.25;4996667;28;45353;-64
2022/01/24 02:53:35;;;;;;;;;45.50;32.00;;;;;4.60;67.80;102566.50;4993064;28;45495;-64
2022/01/24 02:56:04;;;;;;;;;39.50;32.25;;;;;4.59;68.12;102562.13;4980271;28;45318;-64
2022/01/24 02:58:29;;;;;;;;;40.50;35.25;;;;;4.51;67.53;102542.78;4975197;28;45392;-63
2022/01/24 03:00:56;;;;;;;;;37.00;31.00;;;;;4.54;67.93;102555.94;4995500;28;45501;-62
2022/01/24 03:03:22;;;;;;;;;40.75;32.25;;;;;4.55;68.01;102554.19;4965474;28;45465;-64
2022/01/24 03:05:48;;;;;;;;;36.50;34.00;;;;;4.51;68.38;102555.97;4961626;28;45440;-64
2022/01/24 03:08:14;;;;;;;;;45.75;42.75;;;;;4.53;68.05;102548.94;4983062;28;45579;-64
2022/01/24 03:10:44;;;;;;;;;32.75;31.25;;;;;4.51;67.89;102545.44;4987040;28;45329;-64
2022/01/24 03:13:20;;;;;;;;;39.75;33.50;;;;;4.54;67.44;102544.53;4989352;28;45518;-66
2022/01/24 03:15:49;;;;;;;;;49.25;34.75;;;;;4.53;67.86;102546.28;4961482;28;45408;-62
2022/01/24 03:18:16;;;;;;;;;31.50;31.00;;;;;4.57;67.69;102550.72;4979600;28;45836;-66
2022/01/24 03:20:43;;;;;;;;;43.50;34.00;;;;;4.60;67.63;102542.81;4996957;28;45391;-60
2022/01/24 03:23:11;;;;;;;;;44.75;41.75;;;;;4.57;67.52;102541.94;4994847;28;45743;-63
2022/01/24 03:25:37;;;;;;;;;48.75;36.50;;;;;4.48;68.01;102515.56;4991004;28;45451;-62
2022/01/24 03:28:04;;;;;;;;;39.75;36.50;;;;;4.56;67.79;102541.06;4980399;28;45663;-66
2022/01/24 03:30:30;;;;;;;;;46.50;36.25;;;;;4.60;67.32;102532.25;4967212;28;45997;-61
2022/01/24 03:32:56;;;;;;;;;41.25;37.25;;;;;4.60;67.90;102542.81;4984904;28;45503;-60
2022/01/24 03:35:21;;;;;;;;;38.50;34.00;;;;;4.57;67.78;102536.66;4978031;28;45500;-63
2022/01/24 03:37:47;;;;;;;;;38.25;27.00;;;;;4.52;67.16;102526.09;4966675;28;46403;-63
2022/01/24 03:40:13;;;;;;;;;43.25;36.75;;;;;4.50;67.74;102525.22;4944349;28;46358;-65
2022/01/24 03:42:38;;;;;;;;;50.75;40.75;;;;;4.55;68.06;102534.00;4960140;28;45452;-61
2022/01/24 03:45:07;;;;;;;;;42.00;34.75;;;;;4.50;67.88;102522.59;4959705;28;45354;-63
2022/01/24 03:50:00;;;;;;;;;41.25;38.25;;;;;4.54;67.96;102532.25;4982596;28;46266;-61
2022/01/24 03:52:26;;;;;;;;;49.00;42.75;;;;;4.48;67.60;102524.34;4978638;28;45491;-63
2022/01/24 03:54:51;;;;;;;;;40.25;34.25;;;;;4.45;67.41;102534.91;4960385;28;45457;-64
2022/01/24 03:57:18;;;;;;;;;43.50;37.25;;;;;4.41;67.91;102526.09;4978722;28;45591;-60
2022/01/24 03:59:44;;;;;;;;;39.25;31.75;;;;;4.44;68.25;102530.50;4983080;28;45383;-61
2022/01/24 04:02:11;;;;;;;;;39.50;34.00;;;;;4.42;68.31;102522.56;4976402;28;45367;-67
2022/01/24 04:04:36;;;;;;;;;40.00;38.50;;;;;4.42;68.38;102524.34;4976007;28;45521;-59
2022/01/24 04:07:02;;;;;;;;;51.00;41.75;;;;;4.33;68.45;102498.00;4981564;28;45961;-63
2022/01/24 04:09:27;;;;;;;;;50.25;41.75;;;;;4.34;68.50;102512.94;4977362;28;45279;-64
2022/01/24 04:11:56;;;;;;;;;44.75;39.75;;;;;4.36;68.07;102512.06;4960029;28;45407;-63
2022/01/24 04:14:42;;;;;;;;;47.25;39.75;;;;;4.29;68.56;102504.13;4991578;28;45477;-64
2022/01/24 04:22:12;;;;;;;;;46.75;34.50;;;;;4.25;67.96;102505.03;4978365;28;45583;-65
2022/01/24 04:24:38;;;;;;;;;41.00;35.50;;;;;4.18;67.91;102505.91;4977261;28;45429;-60
2022/01/24 04:27:04;;;;;;;;;47.25;39.00;;;;;4.23;68.21;102507.66;4978382;28;45609;-61
2022/01/24 04:29:30;;;;;;;;;41.50;37.75;;;;;4.19;68.17;102513.81;4993842;28;46267;-64
2022/01/24 04:31:56;;;;;;;;;41.00;36.25;;;;;4.18;68.21;102513.81;4958695;28;45508;-65
2022/01/24 04:34:22;;;;;;;;;40.75;36.50;;;;;4.17;68.24;102509.38;4976710;28;45460;-64
2022/01/24 04:36:47;;;;;;;;;36.75;32.50;;;;;4.14;68.42;102508.50;4976449;28;46222;-61
2022/01/24 04:39:14;;;;;;;;;47.75;35.50;;;;;4.18;68.34;102513.81;4976638;28;45447;-64
2022/01/24 04:41:44;;;;;;;;;43.25;38.50;;;;;4.04;68.00;102498.88;4976837;28;45533;-64
2022/01/24 04:44:42;;;;;;;;;54.25;39.25;;;;;4.11;68.20;102519.06;4976893;28;45322;-61
2022/01/24 04:55:05;;;;;;;;;41.75;37.00;;;;;4.09;68.72;102514.66;4909565;28;45400;-63
2022/01/24 04:57:31;;;;;;;;;45.00;37.00;;;;;4.10;68.82;102517.31;4990640;28;45547;-60
2022/01/24 04:59:59;;;;;;;;;48.00;41.50;;;;;4.09;68.43;102523.44;4990396;28;46346;-62
2022/01/24 05:02:25;;;;;;;;;40.75;35.75;;;;;4.06;69.14;102517.31;4958851;28;45455;-61
2022/01/24 05:04:52;;;;;;;;;42.25;33.50;;;;;4.06;68.17;102522.56;4959411;28;45387;-59
2022/01/24 05:07:18;;;;;;;;;40.00;35.75;;;;;4.04;68.36;102514.69;4972076;28;45444;-62
2022/01/24 05:09:51;;;;;;;;;44.50;35.75;;;;;4.05;68.91;102516.44;4976556;28;46060;-65
2022/01/24 05:25:38;;;;;;;;;54.00;42.00;;;;;4.06;68.61;102522.56;4996688;28;45322;-63
2022/01/24 05:28:04;;;;;;;;;43.50;34.75;;;;;4.01;68.45;102513.75;4987655;28;45440;-63
2022/01/24 05:30:30;;;;;;;;;40.00;34.50;;;;;4.02;68.57;102512.88;4979872;28;46746;-62
2022/01/24 05:32:56;;;;;;;;;39.25;33.25;;;;;3.97;68.79;102507.63;4991375;28;45482;-63
2022/01/24 05:35:21;;;;;;;;;38.50;34.75;;;;;3.92;68.16;102506.75;4975059;28;45421;-60
2022/01/24 05:37:46;;;;;;;;;43.75;38.50;;;;;3.89;69.03;102504.09;4982378;28;45541;-64
2022/01/24 05:40:12;;;;;;;;;51.75;37.75;;;;;3.89;69.02;102504.09;4995964;28;45497;-61
2022/01/24 05:42:38;;;;;;;;;39.50;34.75;;;;;3.90;69.10;102505.84;4977301;28;45480;-60
2022/01/24 05:45:05;;;;;;;;;38.25;33.00;;;;;3.77;69.14;102490.91;4975780;28;45364;-62
2022/01/24 05:47:31;;;;;;;;;42.50;35.50;;;;;3.83;69.08;102504.09;4989770;28;45478;-64
2022/01/24 05:49:57;;;;;;;;;49.25;43.00;;;;;3.81;69.23;102501.47;4974769;28;46105;-63
2022/01/24 05:52:22;;;;;;;;;45.25;38.25;;;;;3.77;68.99;102494.41;4992487;28;45658;-63
2022/01/24 05:54:48;;;;;;;;;45.50;39.75;;;;;3.80;69.13;102512.88;4984074;28;45316;-60
2022/01/24 05:57:13;;;;;;;;;52.00;39.50;;;;;3.69;69.08;102482.13;4967277;28;45399;-61
2022/01/24 05:59:39;;;;;;;;;39.00;36.25;;;;;3.78;69.37;102511.09;4959670;28;45277;-62
2022/01/24 06:02:05;;;;;;;;;42.00;34.25;;;;;3.78;68.96;102513.75;4993125;28;45225;-64
2022/01/24 06:04:30;;;;;;;;;39.75;38.00;;;;;3.73;69.33;102497.03;4999233;28;45399;-64
2022/01/24 06:06:56;;;;;;;;;43.50;39.75;;;;;3.79;69.44;102516.38;4984413;28;45482;-64
2022/01/24 06:09:21;;;;;;;;;54.50;37.00;;;;;3.77;68.86;102498.78;4983767;28;46500;-65
2022/01/24 06:11:47;;;;;;;;;45.25;33.25;;;;;3.77;69.25;102502.31;4987207;28;45310;-65
2022/01/24 06:14:12;;;;;;;;;35.00;32.25;;;;;3.80;69.22;102504.97;4978225;28;45469;-62
2022/01/24 06:16:38;;;;;;;;;49.50;41.00;;;;;3.76;69.04;102505.81;4979708;28;45304;-61
2022/01/24 06:19:04;;;;;;;;;50.25;41.25;;;;;3.75;68.74;102503.19;4983919;28;45357;-59
2022/01/24 06:21:29;;;;;;;;;43.25;41.50;;;;;3.80;69.02;102525.16;4981033;28;45748;-63
2022/01/24 06:23:55;;;;;;;;;45.25;39.50;;;;;3.80;69.21;102519.88;4985929;28;45411;-61
2022/01/24 06:26:20;;;;;;;;;48.00;34.50;;;;;3.74;68.96;102504.06;4975632;28;45422;-62
2022/01/24 06:28:46;;;;;;;;;43.25;36.75;;;;;3.74;69.44;102498.78;4961500;28;46977;-61
2022/01/24 06:31:12;;;;;;;;;40.25;34.25;;;;;3.67;68.97;102505.81;4979187;28;45396;-63
2022/01/24 06:33:37;;;;;;;;;43.25;36.00;;;;;3.73;68.63;102511.06;4982082;28;45413;-61
2022/01/24 06:36:03;;;;;;;;;40.50;35.75;;;;;3.74;69.06;102520.72;4978738;28;45534;-63
2022/01/24 06:38:29;;;;;;;;;46.25;40.50;;;;;3.75;69.07;102526.88;4957009;28;48477;-63
2022/01/24 06:40:54;;;;;;;;;55.00;40.00;;;;;3.75;69.11;102532.13;4973021;28;45230;-63
2022/01/24 06:43:20;;;;;;;;;37.75;37.50;;;;;3.79;69.37;102531.28;4978671;28;45468;-62
2022/01/24 06:45:45;;;;;;;;;38.50;36.50;;;;;3.76;69.28;102520.72;4978984;28;45528;-66
2022/01/24 06:48:10;;;;;;;;;47.75;39.50;;;;;3.76;69.18;102520.72;4961235;28;45405;-63
2022/01/24 06:50:36;;;;;;;;;48.75;35.00;;;;;3.76;69.02;102529.50;4978644;28;45477;-61
2022/01/24 06:53:02;;;;;;;;;44.50;32.75;;;;;3.77;69.42;102531.25;4978570;28;45937;-61
2022/01/24 06:55:27;;;;;;;;;45.00;38.00;;;;;3.74;69.27;102526.00;4976843;28;45554;-62
2022/01/24 06:57:53;;;;;;;;;62.75;48.00;;;;;3.77;69.39;102527.75;4962901;28;47616;-61
2022/01/24 07:00:22;;;;;;;;;41.25;36.50;;;;;3.77;69.14;102531.25;4960758;28;45433;-63
2022/01/24 07:02:48;;;;;;;;;62.75;50.25;;;;;3.78;69.05;102521.63;4978035;28;45530;-67
2022/01/24 07:05:14;;;;;;;;;47.75;36.50;;;;;3.73;69.27;102518.09;4945634;28;45358;-68
2022/01/24 07:07:39;;;;;;;;;47.75;38.50;;;;;3.76;69.28;102528.63;4978644;28;46171;-63
2022/01/24 07:10:05;;;;;;;;;40.50;33.00;;;;;3.83;69.13;102528.66;4977110;28;45301;-64
2022/01/24 07:12:31;;;;;;;;;40.25;33.25;;;;;3.83;68.85;102535.69;4977815;28;45188;-65
2022/01/24 07:15:02;;;;;;;;;48.50;36.50;;;;;3.84;68.93;102534.78;4977973;28;47319;-66
2022/01/24 07:17:34;;;;;;;;;42.75;37.00;;;;;3.83;68.60;102528.66;4960163;28;45950;-61
2022/01/24 07:20:00;;;;;;;;;47.00;40.00;;;;;3.81;68.84;102537.44;4969173;28;45476;-63
2022/01/24 07:22:25;;;;;;;;;46.25;41.75;;;;;3.82;68.78;102540.06;4978308;28;45317;-62
2022/01/24 07:24:51;;;;;;;;;46.25;37.00;;;;;3.79;69.30;102536.56;4978308;28;45336;-61
2022/01/24 07:27:16;;;;;;;;;44.00;40.00;;;;;3.77;69.36;102535.63;4976365;28;45954;-60
2022/01/24 07:29:42;;;;;;;;;51.25;43.50;;;;;3.74;69.34;102528.63;4978295;28;45372;-61
2022/01/24 07:32:07;;;;;;;;;50.75;44.75;;;;;3.84;68.84;102542.69;4962180;28;45501;-59
2022/01/24 07:34:34;;;;;;;;;67.00;52.25;;;;;3.81;69.41;102524.28;4978001;28;45373;-62
2022/01/24 07:36:59;;;;;;;;;88.33;67.33;;;;;3.89;68.75;102534.78;4977654;28;46311;-58
2022/01/24 07:39:25;;;;;;;;;93.33;72.33;;;;;3.87;68.76;102534.78;4977987;28;45240;-60
2022/01/24 07:41:51;;;;;;;;;107.33;88.67;;;;;3.87;68.92;102521.63;4976921;28;45233;-61
2022/01/24 07:44:20;;;;;;;;;109.67;86.67;;;;;3.83;68.89;102523.38;4964624;28;45298;-58
2022/01/24 07:46:46;;;;;;;;;109.00;88.33;;;;;3.89;68.90;102540.94;4968945;28;45572;-58
2022/01/24 07:49:12;;;;;;;;;108.00;82.67;;;;;3.85;68.75;102534.78;4969978;28;45538;-64
2022/01/24 07:51:39;;;;;;;;;104.67;84.67;;;;;3.81;68.79;102517.25;4992579;28;45416;-59
2022/01/24 07:54:04;;;;;;;;;93.67;75.00;;;;;3.94;68.54;102544.47;4959938;28;45570;-62
2022/01/24 07:56:30;;;;;;;;;106.00;79.00;;;;;3.91;68.73;102540.97;4992310;28;45946;-63
2022/01/24 07:58:55;;;;;;;;;94.00;74.67;;;;;3.95;68.21;102540.09;4975888;28;45646;-61
2022/01/24 08:01:21;;;;;;;;;98.67;72.67;;;;;3.96;68.26;102540.09;4960114;28;45538;-62
2022/01/24 08:03:46;;;;;;;;;99.33;70.67;;;;;3.96;68.22;102542.72;4977405;28;45247;-59
2022/01/24 08:06:12;;;;;;;;;57.00;48.25;;;;;3.95;68.40;102551.50;4967488;28;45473;-60
2022/01/24 08:08:38;;;;;;;;;81.00;57.25;;;;;3.93;68.67;102544.47;4975353;28;45599;-61
2022/01/24 08:11:04;;;;;;;;;63.00;51.50;;;;;3.97;68.33;102549.75;4977150;28;45457;-59
2022/01/24 08:13:29;;;;;;;;;71.75;58.00;;;;;4.00;68.15;102538.34;4977374;28;45448;-62
2022/01/24 08:15:54;;;;;;;;;67.50;48.25;;;;;4.03;68.07;102549.75;4976971;28;46142;-61
2022/01/24 08:18:20;;;;;;;;;55.75;47.50;;;;;4.05;68.08;102545.38;4981954;28;45444;-61
2022/01/24 08:20:45;;;;;;;;;66.25;47.50;;;;;4.08;68.37;102555.03;4976159;28;46959;-59
2022/01/24 08:23:12;;;;;;;;;51.25;44.25;;;;;4.06;67.83;102554.16;4977676;28;45426;-59
2022/01/24 08:25:38;;;;;;;;;63.50;50.75;;;;;4.07;67.88;102554.16;4970762;28;46093;-57
2022/01/24 08:28:05;;;;;;;;;53.75;45.50;;;;;4.06;67.82;102554.16;4964837;28;45530;-55
2022/01/24 08:30:31;;;;;;;;;62.00;48.00;;;;;4.10;67.99;102556.78;4959534;28;45200;-53
2022/01/24 08:32:56;;;;;;;;;65.25;48.00;;;;;4.12;67.73;102562.94;4976076;28;45605;-57
2022/01/24 08:35:23;;;;;;;;;71.25;51.25;;;;;4.19;68.25;102560.34;4957524;28;45508;-57
2022/01/24 08:37:49;;;;;;;;;57.50;48.25;;;;;4.21;67.51;102555.94;4975705;28;45332;-62
2022/01/24 08:40:21;;;;;;;;;59.25;50.00;;;;;4.33;67.46;102569.13;4975988;28;46034;-61
2022/01/24 08:43:04;;;;;;;;;62.50;51.75;;;;;4.38;67.04;102570.00;4983864;28;45410;-58
2022/01/24 08:45:50;;;;;;;;;56.75;46.25;;;;;4.43;67.84;102570.91;4972125;28;45507;-59
2022/01/24 08:48:19;;;;;;;;;68.50;52.00;;;;;4.56;67.03;102566.53;4976124;28;45316;-60
2022/01/24 08:50:47;;;;;;;;;51.75;44.00;;;;;4.62;66.76;102563.88;4976154;28;45435;-59
2022/01/24 08:53:12;;;;;;;;;58.75;44.00;;;;;4.72;67.27;102565.63;4976799;28;45332;-61
2022/01/24 08:55:38;;;;;;;;;56.00;45.00;;;;;4.76;66.46;102569.13;4975506;28;46117;-55
2022/01/24 08:58:07;;;;;;;;;35.75;31.50;;;;;4.78;66.07;102572.66;4981076;28;45448;-62
2022/01/24 09:00:34;;;;;;;;;60.50;46.00;;;;;4.85;65.40;102569.16;4975549;28;45309;-63
2022/01/24 09:02:59;;;;;;;;;49.50;44.75;;;;;4.89;66.02;102565.63;4975727;28;45458;-62
2022/01/24 09:05:27;;;;;;;;;43.25;43.00;;;;;4.88;65.59;102570.00;4974927;28;45554;-63
2022/01/24 09:07:53;;;;;;;;;57.75;44.75;;;;;4.96;65.72;102577.94;4958533;28;45473;-63
2022/01/24 09:10:19;;;;;;;;;57.50;45.75;;;;;5.01;64.86;102581.44;4976249;28;45218;-59
2022/01/24 09:12:45;;;;;;;;;60.75;47.25;;;;;5.11;65.01;102580.53;4976219;28;45575;-59
2022/01/24 09:15:11;;;;;;;;;58.25;44.25;;;;;5.17;65.08;102583.16;4975090;28;45506;-58
2022/01/24 09:17:37;;;;;;;;;56.75;45.00;;;;;5.23;65.25;102577.88;4958278;28;45564;-56
2022/01/24 09:20:05;;;;;;;;;62.75;46.75;;;;;5.33;64.80;102587.50;4957887;28;45357;-59
2022/01/24 09:22:33;;;;;;;;;46.25;40.75;;;;;5.33;63.76;102576.06;4974624;28;45623;-57
2022/01/24 09:24:59;;;;;;;;;50.00;42.25;;;;;5.22;64.28;102572.59;4975459;28;45520;-54
2022/01/24 09:27:24;;;;;;;;;56.00;46.25;;;;;5.29;64.35;102583.13;4973305;28;45444;-62
2022/01/24 09:29:50;;;;;;;;;58.75;46.75;;;;;5.31;64.69;102581.34;4978930;28;45523;-64
2022/01/24 09:32:15;;;;;;;;;45.50;35.50;;;;;5.25;64.68;102585.78;4977383;28;45474;-59
2022/01/24 09:34:41;;;;;;;;;62.75;44.00;;;;;5.16;63.91;102570.84;4990900;28;46221;-61
2022/01/24 09:37:07;;;;;;;;;56.00;45.25;;;;;5.24;65.03;102584.03;4961892;28;45349;-58
2022/01/24 09:39:32;;;;;;;;;53.25;47.25;;;;;5.26;64.46;102583.13;4983038;28;45386;-60
2022/01/24 09:41:58;;;;;;;;;48.75;43.75;;;;;5.26;64.56;102577.84;4993151;28;45655;-61
2022/01/24 09:44:23;;;;;;;;;55.00;46.25;;;;;5.30;64.61;102584.88;4979459;28;47380;-59
2022/01/24 09:46:48;;;;;;;;;50.50;42.00;;;;;5.35;64.39;102582.25;4981721;28;45854;-57
2022/01/24 09:49:14;;;;;;;;;54.00;43.25;;;;;5.37;64.37;102585.75;4961348;28;45690;-57
2022/01/24 09:51:40;;;;;;;;;55.50;44.00;;;;;5.39;63.51;102577.84;4942007;28;45665;-58
2022/01/24 09:54:07;;;;;;;;;52.25;43.00;;;;;5.43;64.47;102579.56;4976944;28;45474;-60
2022/01/24 09:56:34;;;;;;;;;56.50;43.25;;;;;5.51;63.95;102588.34;4978176;28;45467;-52
2022/01/24 09:59:00;;;;;;;;;50.25;43.25;;;;;5.49;63.75;102584.84;4975406;28;45533;-54
2022/01/24 10:01:26;;;;;;;;;58.25;45.25;;;;;5.48;64.17;102577.81;4960469;28;45557;-53
2022/01/24 10:04:08;;;;;;;;;69.00;49.25;;;;;5.56;63.66;102591.84;4961306;28;46062;-55
2022/01/24 10:07:04;;;;;;;;;57.25;47.75;;;;;5.48;63.88;102567.25;4960265;28;45514;-55
2022/01/24 10:09:38;;;;;;;;;54.50;46.00;;;;;5.40;63.64;102548.78;4960378;28;45587;-58
2022/01/24 10:12:29;;;;;;;;;56.50;45.00;;;;;5.62;63.89;102578.63;4960102;28;45807;-56
2022/01/24 10:17:43;;;;;;;;;48.25;42.00;;;;;5.76;64.08;102590.00;4978270;28;46149;-55
2022/01/24 10:20:41;;;;;;;;;54.75;43.25;;;;;5.87;63.09;102584.69;4977168;28;45859;-56
2022/01/24 10:23:24;;;;;;;;;58.75;48.75;;;;;5.94;63.37;102583.78;4981905;28;45447;-60
2022/01/24 10:25:59;;;;;;;;;64.25;50.00;;;;;5.86;62.38;102553.91;4968312;28;45381;-55
2022/01/24 10:28:40;;;;;;;;;51.75;44.75;;;;;6.04;62.17;102574.06;4978212;28;45309;-58
2022/01/24 10:31:06;;;;;;;;;60.00;45.50;;;;;6.07;62.65;102576.69;4962916;28;45672;-64
2022/01/24 10:34:17;;;;;;;;;55.50;45.75;;;;;6.09;62.14;102566.97;4975561;28;45515;-54
2022/01/24 10:36:47;;;;;;;;;66.00;50.00;;;;;6.07;61.99;102543.22;4972730;28;46172;-57
2022/01/24 10:39:42;;;;;;;;;59.50;49.50;;;;;6.27;61.25;102572.16;4977804;28;45520;-55
2022/01/24 10:44:58;;;;;;;;;50.50;41.75;;;;;6.39;62.22;102561.50;4978079;28;45380;-53
2022/01/24 10:47:31;;;;;;;;;58.75;45.25;;;;;6.45;61.37;102566.75;4975490;28;45524;-50
2022/01/24 10:50:02;;;;;;;;;61.50;48.50;;;;;6.58;60.95;102558.72;4983837;28;45456;-54
2022/01/24 10:52:31;;;;;;;;;65.50;47.25;;;;;6.56;61.10;102542.88;4952101;28;45517;-53
2022/01/24 10:55:15;;;;;;;;;47.50;44.00;;;;;6.68;60.30;102547.19;4976578;28;45432;-54
2022/01/24 10:57:43;;;;;;;;;57.25;45.75;;;;;6.71;60.10;102539.22;4977111;28;46140;-58
2022/01/24 11:00:20;;;;;;;;;56.75;46.75;;;;;6.88;60.32;102550.50;4977660;28;45477;-54
2022/01/24 11:02:49;;;;;;;;;49.25;42.25;;;;;6.96;60.44;102548.66;4960381;28;45437;-60
2022/01/24 11:05:19;;;;;;;;;56.00;46.50;;;;;7.04;59.81;102546.84;4993131;28;45610;-55
2022/01/24 11:07:57;;;;;;;;;63.75;49.00;;;;;7.18;59.95;102538.75;4975744;28;46312;-57
2022/01/24 11:10:33;;;;;;;;;59.25;47.50;;;;;7.26;59.50;102539.53;4992783;28;45490;-54
2022/01/24 11:12:58;;;;;;;;;49.00;35.50;;;;;7.37;59.54;102537.63;4991749;28;45380;-60
2022/01/24 11:15:26;;;;;;;;;54.75;44.75;;;;;7.46;58.96;102528.72;4978033;28;45974;-55
2022/01/24 11:17:53;;;;;;;;;56.00;46.00;;;;;7.46;58.84;102523.41;4977952;28;45954;-55
2022/01/24 11:20:21;;;;;;;;;54.75;46.25;;;;;7.62;58.76;102519.69;4977073;28;45502;-54
2022/01/24 11:22:58;;;;;;;;;52.75;44.50;;;;;7.64;58.82;102499.34;4960086;28;45433;-57
2022/01/24 11:25:26;;;;;;;;;57.00;44.25;;;;;7.80;58.06;102507.06;4959052;28;45914;-57
2022/01/24 11:27:52;;;;;;;;;56.50;44.75;;;;;7.87;57.48;102524.66;4974247;28;46233;-57
2022/01/24 11:30:38;;;;;;;;;52.25;42.00;;;;;7.87;56.66;102508.75;4959257;28;45513;-58
2022/01/24 11:33:11;;;;;;;;;51.00;42.50;;;;;7.94;56.95;102513.03;4949284;28;45629;-60
2022/01/24 11:35:43;;;;;;;;;56.25;46.00;;;;;7.94;56.41;102513.03;4959450;28;45649;-56
2022/01/24 11:38:27;;;;;;;;;54.00;45.25;;;;;7.94;57.20;102516.59;4985037;28;45392;-60
2022/01/24 11:41:03;;;;;;;;;57.75;49.25;;;;;8.04;57.25;102509.38;4982670;28;45414;-62
2022/01/24 11:43:35;;;;;;;;;49.50;42.50;;;;;8.05;56.79;102505.81;4974225;28;45583;-60
2022/01/24 11:46:08;;;;;;;;;64.75;47.00;;;;;8.05;56.15;102512.91;4987728;28;45490;-60
2022/01/24 11:48:38;;;;;;;;;55.75;46.25;;;;;8.08;56.94;102502.28;4992771;28;45371;-71
2022/01/24 11:51:11;;;;;;;;;53.75;46.00;;;;;8.10;56.89;102501.34;4974690;28;46888;-69
2022/01/24 11:53:44;;;;;;;;;65.00;51.50;;;;;8.22;56.62;102493.19;4977930;28;45320;-63
2022/01/24 11:56:27;;;;;;;;;55.50;42.25;;;;;8.31;56.21;102500.09;4975167;28;45406;-63
2022/01/24 11:59:18;;;;;;;;;51.75;40.00;;;;;8.37;56.03;102492.09;4976902;28;45447;-63
2022/01/24 12:01:46;;;;;;;;;56.75;46.25;;;;;8.39;55.85;102492.94;4980645;28;45349;-64
2022/01/24 12:04:11;;;;;;;;;57.00;42.25;;;;;8.41;55.64;102495.56;4956319;28;45565;-65
2022/01/24 12:07:14;;;;;;;;;55.00;43.25;;;;;8.45;55.26;102495.47;4956211;28;45660;-64
2022/01/24 12:09:40;;;;;;;;;54.75;39.50;;;;;8.49;54.71;102488.38;4978776;28;45695;-64
2022/01/24 12:12:48;;;;;;;;;45.00;42.00;;;;;8.44;56.04;102499.03;4970701;28;45832;-68
2022/01/24 12:15:41;;;;;;;;;55.00;45.50;;;;;8.60;56.02;102496.16;4986852;28;45613;-63
2022/01/24 12:18:09;;;;;;;;;68.75;56.00;;;;;8.61;54.33;102493.47;4963466;28;45555;-65
2022/01/24 12:20:35;;;;;;;;;49.00;38.00;;;;;8.62;55.35;102494.34;4927472;28;45385;-65
2022/01/24 12:23:25;;;;;;;;;49.00;40.75;;;;;8.67;55.25;102485.38;4958698;28;45482;-65
2022/01/24 12:25:54;;;;;;;;;45.75;39.25;;;;;8.72;55.80;102487.94;4976276;28;45480;-64
2022/01/24 12:28:24;;;;;;;;;47.00;40.00;;;;;8.75;54.47;102485.25;4959251;28;45366;-63
2022/01/24 12:31:08;;;;;;;;;51.50;39.50;;;;;8.72;54.24;102483.50;4959223;28;46825;-64
2022/01/24 12:33:36;;;;;;;;;42.00;39.00;;;;;8.71;53.67;102495.03;4976154;28;45487;-65
2022/01/24 12:36:15;;;;;;;;;35.75;33.00;;;;;8.66;53.75;102486.28;4958875;28;45500;-61
2022/01/24 12:38:46;;;;;;;;;42.25;34.00;;;;;8.68;55.14;102491.56;4976629;28;45502;-62
2022/01/24 12:41:37;;;;;;;;;35.75;31.50;;;;;8.70;54.34;102487.09;4982673;28;45764;-65
2022/01/24 12:46:30;;;;;;;;;32.00;27.50;;;;;8.72;53.09;102486.16;4975372;28;45535;-59
2022/01/24 12:49:04;;;;;;;;;39.00;34.50;;;;;8.67;54.49;102484.50;4976477;28;45412;-59
2022/01/24 12:51:33;;;;;;;;;30.25;30.25;;;;;8.61;54.80;102466.94;4958239;28;47151;-58
2022/01/24 12:53:58;;;;;;;;;41.75;37.50;;;;;8.62;54.41;102463.38;4974996;28;45464;-62
2022/01/24 12:56:26;;;;;;;;;37.50;33.50;;;;;8.71;54.58;102473.81;4958098;28;45447;-61
2022/01/24 12:58:52;;;;;;;;;38.50;34.25;;;;;8.78;54.90;102466.63;4976023;28;45424;-62
2022/01/24 13:01:25;;;;;;;;;42.50;31.75;;;;;8.80;53.89;102475.44;4974994;28;45584;-58
2022/01/24 13:03:52;;;;;;;;;42.25;33.00;;;;;8.83;54.32;102468.28;4972019;28;45999;-57
2022/01/24 13:06:19;;;;;;;;;38.75;28.50;;;;;8.82;53.99;102469.19;4973248;28;45424;-58
2022/01/24 13:08:59;;;;;;;;;36.00;32.25;;;;;8.89;55.02;102485.00;4976197;28;45517;-59
2022/01/24 13:11:27;;;;;;;;;37.25;33.75;;;;;8.89;53.88;102477.03;4976065;28;45501;-58